sensor_id;sensor_type;location;lat;lon;timestamp;pressure;altitude;pressure_sealevel;temperature;humidity
51123;BME280;37162;41.724;13.346;2022-12-29T00:01:28;97615.31;;;16.94;68.13
51123;BME280;37162;41.724;13.346;2022-12-29T00:03:53;97612.63;;;16.94;67.99
51123;BME280;37162;41.724;13.346;2022-12-29T00:06:19;97609.94;;;16.94;68.08
51123;BME280;37162;41.724;13.346;2022-12-29T00:08:45;97585.81;;;16.81;68.11
51123;BME280;37162;41.724;13.346;2022-12-29T00:11:13;97597.97;;;16.90;68.23
51123;BME280;37162;41.724;13.346;2022-12-29T00:13:39;97602.91;;;16.93;68.27
51123;BME280;37162;41.724;13.346;2022-12-29T00:16:24;97607.44;;;16.93;67.85
51123;BME280;37162;41.724;13.346;2022-12-29T00:18:49;97589.09;;;16.83;68.08
51123;BME280;37162;41.724;13.346;2022-12-29T00:21:18;97603.94;;;16.92;68.08
51123;BME280;37162;41.724;13.346;2022-12-29T00:24:04;97592.84;;;16.82;67.95
51123;BME280;37162;41.724;13.346;2022-12-29T00:27:11;97608.50;;;16.92;68.21
51123;BME280;37162;41.724;13.346;2022-12-29T00:29:56;97610.34;;;16.91;68.28
51123;BME280;37162;41.724;13.346;2022-12-29T00:32:41;97612.81;;;16.93;68.25
51123;BME280;37162;41.724;13.346;2022-12-29T00:35:31;97603.13;;;16.92;68.53
51123;BME280;37162;41.724;13.346;2022-12-29T00:38:03;97606.63;;;16.92;68.55
51123;BME280;37162;41.724;13.346;2022-12-29T00:40:49;97608.50;;;16.92;68.23
51123;BME280;37162;41.724;13.346;2022-12-29T00:43:33;97609.53;;;16.91;68.25
51123;BME280;37162;41.724;13.346;2022-12-29T00:46:17;97609.53;;;16.91;68.25
51123;BME280;37162;41.724;13.346;2022-12-29T00:48:42;97613.84;;;16.92;68.00
51123;BME280;37162;41.724;13.346;2022-12-29T00:51:27;97615.72;;;16.91;68.00
51123;BME280;37162;41.724;13.346;2022-12-29T00:53:52;97618.41;;;16.91;68.14
51123;BME280;37162;41.724;13.346;2022-12-29T00:56:17;97593.44;;;16.84;68.04
51123;BME280;37162;41.724;13.346;2022-12-29T00:58:43;97619.44;;;16.90;68.20
51123;BME280;37162;41.724;13.346;2022-12-29T01:01:09;97614.69;;;16.92;67.94
51123;BME280;37162;41.724;13.346;2022-12-29T01:03:35;97613.03;;;16.91;67.90
51123;BME280;37162;41.724;13.346;2022-12-29T01:06:03;97603.16;;;16.85;68.01
51123;BME280;37162;41.724;13.346;2022-12-29T01:08:30;97617.59;;;16.91;68.13
51123;BME280;37162;41.724;13.346;2022-12-29T01:10:59;97617.59;;;16.91;67.87
51123;BME280;37162;41.724;13.346;2022-12-29T01:13:25;97619.22;;;16.92;67.70
51123;BME280;37162;41.724;13.346;2022-12-29T01:15:52;97611.41;;;16.90;67.71
51123;BME280;37162;41.724;13.346;2022-12-29T01:18:17;97608.91;;;16.89;67.77
51123;BME280;37162;41.724;13.346;2022-12-29T01:20:43;97614.06;;;16.90;68.00
51123;BME280;37162;41.724;13.346;2022-12-29T01:23:08;97600.06;;;16.81;67.81
51123;BME280;37162;41.724;13.346;2022-12-29T01:25:34;97613.25;;;16.90;68.12
51123;BME280;37162;41.724;13.346;2022-12-29T01:27:59;97615.94;;;16.90;68.25
51123;BME280;37162;41.724;13.346;2022-12-29T01:30:24;97593.06;;;16.80;68.06
51123;BME280;37162;41.724;13.346;2022-12-29T01:32:50;97601.28;;;16.85;68.12
51123;BME280;37162;41.724;13.346;2022-12-29T01:35:15;97606.03;;;16.83;68.15
51123;BME280;37162;41.724;13.346;2022-12-29T01:37:41;97603.75;;;16.87;67.91
51123;BME280;37162;41.724;13.346;2022-12-29T01:40:06;97602.53;;;16.83;67.95
51123;BME280;37162;41.724;13.346;2022-12-29T01:42:32;97610.34;;;16.91;68.45
51123;BME280;37162;41.724;13.346;2022-12-29T01:45:02;97602.72;;;16.88;68.48
51123;BME280;37162;41.724;13.346;2022-12-29T01:47:36;97594.06;;;16.86;68.05
51123;BME280;37162;41.724;13.346;2022-12-29T01:50:17;97602.13;;;16.86;68.02
51123;BME280;37162;41.724;13.346;2022-12-29T01:53:01;97604.16;;;16.84;68.11
51123;BME280;37162;41.724;13.346;2022-12-29T01:55:31;97594.69;;;16.81;67.89
51123;BME280;37162;41.724;13.346;2022-12-29T01:57:59;97583.16;;;16.74;67.89
51123;BME280;37162;41.724;13.346;2022-12-29T02:00:26;97593.44;;;16.84;67.89
51123;BME280;37162;41.724;13.346;2022-12-29T02:02:53;97601.28;;;16.85;67.83
51123;BME280;37162;41.724;13.346;2022-12-29T02:08:32;97603.16;;;16.85;67.56
51123;BME280;37162;41.724;13.346;2022-12-29T02:10:59;97603.16;;;16.85;67.83
51123;BME280;37162;41.724;13.346;2022-12-29T02:13:26;97597.78;;;16.85;67.55
51123;BME280;37162;41.724;13.346;2022-12-29T02:24:19;97573.22;;;16.75;68.08
51123;BME280;37162;41.724;13.346;2022-12-29T02:32:25;97584.16;;;16.86;68.40
51123;BME280;37162;41.724;13.346;2022-12-29T02:40:47;97579.00;;;16.85;67.94
51123;BME280;37162;41.724;13.346;2022-12-29T02:43:33;97562.31;;;16.76;67.67
51123;BME280;37162;41.724;13.346;2022-12-29T02:51:34;97577.13;;;16.85;67.62
51123;BME280;37162;41.724;13.346;2022-12-29T02:54:01;97582.50;;;16.85;67.88
51123;BME280;37162;41.724;13.346;2022-12-29T02:56:45;97561.88;;;16.79;67.88
51123;BME280;37162;41.724;13.346;2022-12-29T02:59:11;97572.41;;;16.81;68.00
51123;BME280;37162;41.724;13.346;2022-12-29T03:15:43;97559.41;;;16.78;67.75
51123;BME280;37162;41.724;13.346;2022-12-29T03:21:27;97564.94;;;16.83;68.11
51123;BME280;37162;41.724;13.346;2022-12-29T03:24:16;97559.81;;;16.81;68.12
51123;BME280;37162;41.724;13.346;2022-12-29T03:26:43;97550.72;;;16.82;67.99
51123;BME280;37162;41.724;13.346;2022-12-29T03:29:11;97551.53;;;16.83;67.97
51123;BME280;37162;41.724;13.346;2022-12-29T03:31:38;97552.34;;;16.83;67.90
51123;BME280;37162;41.724;13.346;2022-12-29T03:34:05;97550.72;;;16.82;67.93
51123;BME280;37162;41.724;13.346;2022-12-29T03:36:38;97526.78;;;16.74;68.50
51123;BME280;37162;41.724;13.346;2022-12-29T03:39:09;97547.63;;;16.85;68.84
51123;BME280;37162;41.724;13.346;2022-12-29T03:41:40;97545.56;;;16.81;68.69
51123;BME280;37162;41.724;13.346;2022-12-29T03:44:07;97543.94;;;16.80;68.12
51123;BME280;37162;41.724;13.346;2022-12-29T03:46:32;97548.44;;;16.79;67.87
51123;BME280;37162;41.724;13.346;2022-12-29T03:48:58;97546.81;;;16.78;67.66
51123;BME280;37162;41.724;13.346;2022-12-29T03:51:23;97546.81;;;16.78;67.74
51123;BME280;37162;41.724;13.346;2022-12-29T03:53:49;97547.66;;;16.72;67.96
51123;BME280;37162;41.724;13.346;2022-12-29T03:56:14;97562.09;;;16.78;67.62
51123;BME280;37162;41.724;13.346;2022-12-29T03:58:40;97563.13;;;16.77;67.48
51123;BME280;37162;41.724;13.346;2022-12-29T04:01:05;97566.03;;;16.75;67.61
51123;BME280;37162;41.724;13.346;2022-12-29T04:03:33;97569.31;;;16.77;67.52
51123;BME280;37162;41.724;13.346;2022-12-29T04:05:59;97569.31;;;16.77;67.82
51123;BME280;37162;41.724;13.346;2022-12-29T04:08:24;97569.53;;;16.76;67.94
51123;BME280;37162;41.724;13.346;2022-12-29T04:10:50;97573.63;;;16.78;68.00
51123;BME280;37162;41.724;13.346;2022-12-29T04:13:16;97573.63;;;16.78;68.05
51123;BME280;37162;41.724;13.346;2022-12-29T04:15:45;97569.31;;;16.77;67.94
51123;BME280;37162;41.724;13.346;2022-12-29T04:18:13;97575.28;;;16.79;68.00
51123;BME280;37162;41.724;13.346;2022-12-29T04:20:39;97576.13;;;16.80;68.18
51123;BME280;37162;41.724;13.346;2022-12-29T04:23:23;97577.97;;;16.79;67.94
51123;BME280;37162;41.724;13.346;2022-12-29T04:25:48;97581.50;;;16.80;68.04
51123;BME280;37162;41.724;13.346;2022-12-29T04:28:15;97579.81;;;16.79;67.97
51123;BME280;37162;41.724;13.346;2022-12-29T04:30:41;97586.00;;;16.79;67.70
51123;BME280;37162;41.724;13.346;2022-12-29T04:33:07;97583.56;;;16.78;67.75
51123;BME280;37162;41.724;13.346;2022-12-29T04:35:32;97592.22;;;16.80;67.59
51123;BME280;37162;41.724;13.346;2022-12-29T04:37:58;97588.69;;;16.79;67.39
51123;BME280;37162;41.724;13.346;2022-12-29T04:40:23;97591.38;;;16.79;67.83
51123;BME280;37162;41.724;13.346;2022-12-29T04:42:49;97591.38;;;16.79;67.52
51123;BME280;37162;41.724;13.346;2022-12-29T04:45:15;97590.38;;;16.80;67.69
51123;BME280;37162;41.724;13.346;2022-12-29T04:47:40;97582.50;;;16.79;67.61
51123;BME280;37162;41.724;13.346;2022-12-29T04:50:06;97591.38;;;16.79;67.61
51123;BME280;37162;41.724;13.346;2022-12-29T04:52:32;97593.06;;;16.80;67.64
51123;BME280;37162;41.724;13.346;2022-12-29T04:54:57;97590.56;;;16.79;67.63
51123;BME280;37162;41.724;13.346;2022-12-29T04:57:23;97573.88;;;16.70;67.65
51123;BME280;37162;41.724;13.346;2022-12-29T04:59:48;97583.56;;;16.71;67.65
51123;BME280;37162;41.724;13.346;2022-12-29T05:02:15;97599.44;;;16.79;67.44
51123;BME280;37162;41.724;13.346;2022-12-29T05:04:40;97595.94;;;16.79;67.78
51123;BME280;37162;41.724;13.346;2022-12-29T05:07:06;97591.00;;;16.76;67.88
51123;BME280;37162;41.724;13.346;2022-12-29T05:09:31;97595.75;;;16.80;67.77
51123;BME280;37162;41.724;13.346;2022-12-29T05:11:56;97587.88;;;16.79;68.01
51123;BME280;37162;41.724;13.346;2022-12-29T05:14:22;97595.75;;;16.80;68.23
51123;BME280;37162;41.724;13.346;2022-12-29T05:16:47;97602.13;;;16.79;67.73
51123;BME280;37162;41.724;13.346;2022-12-29T05:19:13;97586.44;;;16.70;67.87
51123;BME280;37162;41.724;13.346;2022-12-29T05:21:38;97604.81;;;16.79;67.66
51123;BME280;37162;41.724;13.346;2022-12-29T05:24:04;97595.13;;;16.72;67.54
51123;BME280;37162;41.724;13.346;2022-12-29T05:26:29;97602.13;;;16.79;67.74
51123;BME280;37162;41.724;13.346;2022-12-29T05:28:55;97605.84;;;16.78;67.50
51123;BME280;37162;41.724;13.346;2022-12-29T05:31:20;97610.38;;;16.78;67.56
51123;BME280;37162;41.724;13.346;2022-12-29T05:33:46;97620.31;;;16.77;67.33
51123;BME280;37162;41.724;13.346;2022-12-29T05:36:11;97616.78;;;16.77;67.40
51123;BME280;37162;41.724;13.346;2022-12-29T05:38:37;97622.97;;;16.77;67.48
51123;BME280;37162;41.724;13.346;2022-12-29T05:41:02;97622.16;;;16.77;67.48
51123;BME280;37162;41.724;13.346;2022-12-29T05:43:28;97621.34;;;16.76;67.34
51123;BME280;37162;41.724;13.346;2022-12-29T05:45:53;97572.25;;;16.49;67.46
51123;BME280;37162;41.724;13.346;2022-12-29T05:48:19;97601.50;;;16.64;67.39
51123;BME280;37162;41.724;13.346;2022-12-29T05:50:49;97617.03;;;16.75;67.33
51123;BME280;37162;41.724;13.346;2022-12-29T05:53:14;97609.75;;;16.69;67.53
51123;BME280;37162;41.724;13.346;2022-12-29T05:55:44;97628.16;;;16.72;67.43
51123;BME280;37162;41.724;13.346;2022-12-29T05:58:09;97621.13;;;16.71;67.39
51123;BME280;37162;41.724;13.346;2022-12-29T06:00:35;97626.06;;;16.74;67.51
51123;BME280;37162;41.724;13.346;2022-12-29T06:03:00;97639.50;;;16.74;67.54
51123;BME280;37162;41.724;13.346;2022-12-29T06:05:26;97628.75;;;16.68;67.46
51123;BME280;37162;41.724;13.346;2022-12-29T06:07:51;97630.41;;;16.69;67.51
51123;BME280;37162;41.724;13.346;2022-12-29T06:10:17;97649.63;;;16.72;67.60
51123;BME280;37162;41.724;13.346;2022-12-29T06:12:43;97641.56;;;16.72;67.47
51123;BME280;37162;41.724;13.346;2022-12-29T06:15:08;97631.25;;;16.63;67.53
51123;BME280;37162;41.724;13.346;2022-12-29T06:17:34;97645.28;;;16.71;67.47
51123;BME280;37162;41.724;13.346;2022-12-29T06:19:59;97646.13;;;16.72;67.37
51123;BME280;37162;41.724;13.346;2022-12-29T06:22:25;97647.94;;;16.71;67.24
51123;BME280;37162;41.724;13.346;2022-12-29T06:24:50;97650.63;;;16.71;67.37
51123;BME280;37162;41.724;13.346;2022-12-29T06:27:16;97638.03;;;16.65;67.18
51123;BME280;37162;41.724;13.346;2022-12-29T06:29:41;97646.50;;;16.69;67.41
51123;BME280;37162;41.724;13.346;2022-12-29T06:32:08;97645.28;;;16.71;67.51
51123;BME280;37162;41.724;13.346;2022-12-29T06:34:35;97640.72;;;16.65;67.32
51123;BME280;37162;41.724;13.346;2022-12-29T06:37:00;97632.28;;;16.61;67.36
51123;BME280;37162;41.724;13.346;2022-12-29T06:39:27;97628.16;;;16.59;67.34
51123;BME280;37162;41.724;13.346;2022-12-29T06:41:53;97649.00;;;16.70;67.40
51123;BME280;37162;41.724;13.346;2022-12-29T06:44:20;97644.63;;;16.69;67.32
51123;BME280;37162;41.724;13.346;2022-12-29T06:46:45;97647.31;;;16.69;67.28
51123;BME280;37162;41.724;13.346;2022-12-29T06:49:10;97642.16;;;16.68;67.31
51123;BME280;37162;41.724;13.346;2022-12-29T06:51:36;97650.00;;;16.69;67.26
51123;BME280;37162;41.724;13.346;2022-12-29T06:54:01;97624.03;;;16.56;67.58
51123;BME280;37162;41.724;13.346;2022-12-29T06:56:27;97652.50;;;16.71;67.61
51123;BME280;37162;41.724;13.346;2022-12-29T06:58:52;97652.50;;;16.71;67.83
51123;BME280;37162;41.724;13.346;2022-12-29T07:01:18;97649.81;;;16.71;67.81
51123;BME280;37162;41.724;13.346;2022-12-29T07:03:43;97646.31;;;16.70;67.71
51123;BME280;37162;41.724;13.346;2022-12-29T07:06:09;97638.88;;;16.66;67.98
51123;BME280;37162;41.724;13.346;2022-12-29T07:08:34;97638.66;;;16.67;67.56
51123;BME280;37162;41.724;13.346;2022-12-29T07:11:00;97650.44;;;16.73;67.70
51123;BME280;37162;41.724;13.346;2022-12-29T07:13:26;97630.84;;;16.66;67.59
51123;BME280;37162;41.724;13.346;2022-12-29T07:15:51;97647.34;;;16.76;67.53
51123;BME280;37162;41.724;13.346;2022-12-29T07:18:16;97639.06;;;16.71;67.47
51123;BME280;37162;41.724;13.346;2022-12-29T07:20:42;97652.50;;;16.77;67.23
51123;BME280;37162;41.724;13.346;2022-12-29T07:23:07;97648.78;;;16.78;67.22
51123;BME280;37162;41.724;13.346;2022-12-29T07:25:33;97646.53;;;16.75;67.10
51123;BME280;37162;41.724;13.346;2022-12-29T07:28:00;97612.28;;;16.57;67.02
51123;BME280;37162;41.724;13.346;2022-12-29T07:30:25;97654.56;;;16.82;67.43
51123;BME280;37162;41.724;13.346;2022-12-29T07:32:51;97647.09;;;16.84;67.01
51123;BME280;37162;41.724;13.346;2022-12-29T07:35:16;97649.59;;;16.85;66.99
51123;BME280;37162;41.724;13.346;2022-12-29T07:37:42;97659.91;;;16.89;66.80
51123;BME280;37162;41.724;13.346;2022-12-29T07:40:09;97652.69;;;16.89;66.69
51123;BME280;37162;41.724;13.346;2022-12-29T07:42:34;97656.59;;;16.93;66.89
51123;BME280;37162;41.724;13.346;2022-12-29T07:45:00;97636.38;;;16.84;66.82
51123;BME280;37162;41.724;13.346;2022-12-29T07:47:26;97656.59;;;17.00;66.69
51123;BME280;37162;41.724;13.346;2022-12-29T07:49:51;97659.69;;;17.03;66.59
51123;BME280;37162;41.724;13.346;2022-12-29T07:52:17;97642.34;;;16.93;66.31
51123;BME280;37162;41.724;13.346;2022-12-29T07:54:42;97638.84;;;16.99;66.34
51123;BME280;37162;41.724;13.346;2022-12-29T07:57:08;97665.41;;;17.14;66.57
51123;BME280;37162;41.724;13.346;2022-12-29T07:59:33;97654.47;;;17.15;66.45
51123;BME280;37162;41.724;13.346;2022-12-29T08:01:59;97654.66;;;17.20;66.34
51123;BME280;37162;41.724;13.346;2022-12-29T08:04:24;97668.25;;;17.25;65.84
51123;BME280;37162;41.724;13.346;2022-12-29T08:06:50;97659.38;;;17.25;65.81
51123;BME280;37162;41.724;13.346;2022-12-29T08:09:15;97667.44;;;17.31;65.46
51123;BME280;37162;41.724;13.346;2022-12-29T08:11:41;97669.66;;;17.34;65.65
51123;BME280;37162;41.724;13.346;2022-12-29T08:14:09;97674.81;;;17.36;65.52
51123;BME280;37162;41.724;13.346;2022-12-29T08:16:35;97672.34;;;17.41;65.44
51123;BME280;37162;41.724;13.346;2022-12-29T08:19:01;97682.63;;;17.44;65.54
51123;BME280;37162;41.724;13.346;2022-12-29T08:21:28;97680.38;;;17.48;65.46
51123;BME280;37162;41.724;13.346;2022-12-29T08:23:54;97660.56;;;17.42;65.44
51123;BME280;37162;41.724;13.346;2022-12-29T08:26:19;97678.44;;;17.55;65.40
51123;BME280;37162;41.724;13.346;2022-12-29T08:28:45;97661.16;;;17.44;65.41
51123;BME280;37162;41.724;13.346;2022-12-29T08:31:10;97662.56;;;17.53;65.42
51123;BME280;37162;41.724;13.346;2022-12-29T08:33:36;97683.41;;;17.65;65.45
51123;BME280;37162;41.724;13.346;2022-12-29T08:36:03;97667.50;;;17.56;65.58
51123;BME280;37162;41.724;13.346;2022-12-29T08:38:29;97672.44;;;17.59;65.45
51123;BME280;37162;41.724;13.346;2022-12-29T08:40:55;97672.66;;;17.65;65.72
51123;BME280;37162;41.724;13.346;2022-12-29T08:43:22;97691.41;;;17.78;65.57
51123;BME280;37162;41.724;13.346;2022-12-29T08:45:47;97679.63;;;17.79;65.56
51123;BME280;37162;41.724;13.346;2022-12-29T08:48:12;97686.00;;;17.84;65.49
51123;BME280;37162;41.724;13.346;2022-12-29T08:50:38;97689.28;;;17.86;65.50
51123;BME280;37162;41.724;13.346;2022-12-29T08:53:03;97666.84;;;17.74;65.44
51123;BME280;37162;41.724;13.346;2022-12-29T08:55:29;97693.81;;;17.93;65.46
51123;BME280;37162;41.724;13.346;2022-12-29T08:57:54;97686.34;;;17.95;65.28
51123;BME280;37162;41.724;13.346;2022-12-29T09:00:20;97685.06;;;17.97;65.19
51123;BME280;37162;41.724;13.346;2022-12-29T09:02:46;97669.41;;;17.87;65.02
51123;BME280;37162;41.724;13.346;2022-12-29T09:05:11;97686.09;;;18.03;64.67
51123;BME280;37162;41.724;13.346;2022-12-29T09:07:37;97674.94;;;17.99;64.91
51123;BME280;37162;41.724;13.346;2022-12-29T09:10:03;97682.13;;;18.05;64.67
51123;BME280;37162;41.724;13.346;2022-12-29T09:12:28;97688.72;;;18.09;64.38
51123;BME280;37162;41.724;13.346;2022-12-29T09:14:54;97670.16;;;18.01;64.39
51123;BME280;37162;41.724;13.346;2022-12-29T09:17:19;97672.59;;;18.09;64.41
51123;BME280;37162;41.724;13.346;2022-12-29T09:20:04;97684.97;;;18.17;64.24
51123;BME280;37162;41.724;13.346;2022-12-29T09:22:29;97670.72;;;18.10;63.93
51123;BME280;37162;41.724;13.346;2022-12-29T09:24:55;97683.50;;;18.21;63.99
51123;BME280;37162;41.724;13.346;2022-12-29T09:27:20;97682.44;;;18.22;64.08
51123;BME280;37162;41.724;13.346;2022-12-29T09:29:46;97676.59;;;18.25;64.15
51123;BME280;37162;41.724;13.346;2022-12-29T09:32:11;97688.81;;;18.28;63.95
51123;BME280;37162;41.724;13.346;2022-12-29T09:34:37;97683.41;;;18.28;64.05
51123;BME280;37162;41.724;13.346;2022-12-29T09:37:02;97674.09;;;18.30;63.96
51123;BME280;37162;41.724;13.346;2022-12-29T09:39:28;97667.72;;;18.25;63.82
51123;BME280;37162;41.724;13.346;2022-12-29T09:47:13;97663.94;;;18.32;63.88
51123;BME280;37162;41.724;13.346;2022-12-29T09:49:45;97669.88;;;18.41;63.78
51123;BME280;37162;41.724;13.346;2022-12-29T09:52:18;97678.53;;;18.43;63.87
51123;BME280;37162;41.724;13.346;2022-12-29T09:55:05;97670.84;;;18.47;63.86
51123;BME280;37162;41.724;13.346;2022-12-29T09:57:39;97670.44;;;18.50;63.74
51123;BME280;37162;41.724;13.346;2022-12-29T10:00:32;97654.72;;;18.47;63.97
51123;BME280;37162;41.724;13.346;2022-12-29T10:03:04;97666.25;;;18.54;63.97
51123;BME280;37162;41.724;13.346;2022-12-29T10:05:46;97666.84;;;18.56;64.04
51123;BME280;37162;41.724;13.346;2022-12-29T10:24:34;97639.75;;;18.76;63.57
51123;BME280;37162;41.724;13.346;2022-12-29T10:27:03;97641.78;;;18.80;63.75
51123;BME280;37162;41.724;13.346;2022-12-29T10:29:41;97637.59;;;18.84;63.66
51123;BME280;37162;41.724;13.346;2022-12-29T10:32:23;97624.22;;;18.78;63.16
51123;BME280;37162;41.724;13.346;2022-12-29T10:35:19;97628.25;;;18.87;63.48
51123;BME280;37162;41.724;13.346;2022-12-29T10:37:49;97632.75;;;18.93;63.22
51123;BME280;37162;41.724;13.346;2022-12-29T10:40:37;97628.75;;;18.96;63.07
51123;BME280;37162;41.724;13.346;2022-12-29T10:43:18;97629.16;;;18.99;62.89
51123;BME280;37162;41.724;13.346;2022-12-29T10:45:47;97626.00;;;19.02;62.60
51123;BME280;37162;41.724;13.346;2022-12-29T10:48:23;97625.53;;;19.05;62.42
51123;BME280;37162;41.724;13.346;2022-12-29T10:50:50;97621.34;;;19.09;62.47
51123;BME280;37162;41.724;13.346;2022-12-29T10:53:21;97621.97;;;19.11;62.28
51123;BME280;37162;41.724;13.346;2022-12-29T10:55:49;97620.47;;;19.15;62.30
51123;BME280;37162;41.724;13.346;2022-12-29T10:58:15;97602.75;;;19.08;62.20
51123;BME280;37162;41.724;13.346;2022-12-29T11:00:42;97612.84;;;19.12;62.20
51123;BME280;37162;41.724;13.346;2022-12-29T11:06:06;97613.81;;;19.18;62.07
51123;BME280;37162;41.724;13.346;2022-12-29T11:08:36;97604.53;;;19.14;62.03
51123;BME280;37162;41.724;13.346;2022-12-29T11:11:08;97610.06;;;19.19;62.03
51123;BME280;37162;41.724;13.346;2022-12-29T11:13:49;97610.28;;;19.18;62.04
51123;BME280;37162;41.724;13.346;2022-12-29T11:16:33;97604.66;;;19.19;62.12
51123;BME280;37162;41.724;13.346;2022-12-29T11:19:00;97599.88;;;19.21;62.26
51123;BME280;37162;41.724;13.346;2022-12-29T11:23:57;97597.34;;;19.26;62.39
51123;BME280;37162;41.724;13.346;2022-12-29T11:26:24;97589.00;;;19.28;62.24
51123;BME280;37162;41.724;13.346;2022-12-29T11:31:46;97585.88;;;19.31;62.06
51123;BME280;37162;41.724;13.346;2022-12-29T11:34:30;97585.63;;;19.32;61.82
51123;BME280;37162;41.724;13.346;2022-12-29T11:37:11;97575.53;;;19.28;61.57
51123;BME280;37162;41.724;13.346;2022-12-29T11:40:03;97578.84;;;19.30;61.46
51123;BME280;37162;41.724;13.346;2022-12-29T11:42:55;97568.88;;;19.30;61.46
